sensor_id;sensor_type;location;lat;lon;timestamp;pressure;altitude;pressure_sealevel;temperature;humidity
44734;BME280;30462;52.446;-1.930;2023-04-23T00:00:19;98675.07422;;;;
44734;BME280;30462;52.446;-1.930;2023-04-23T00:01:18;98676.92969;;;;
44734;BME280;30462;52.446;-1.930;2023-04-23T00:02:18;98672.39453;;;;
44734;BME280;30462;52.446;-1.930;2023-04-23T00:03:18;98674.95703;;;;
44734;BME280;30462;52.446;-1.930;2023-04-23T00:04:18;98674.6875;;;;
44734;BME280;30462;52.446;-1.930;2023-04-23T00:05:18;98673.87109;;;;
44734;BME280;30462;52.446;-1.930;2023-04-23T00:06:18;98673.91406;;;;
44734;BME280;30462;52.446;-1.930;2023-04-23T00:07:18;98672.28906;;;;
44734;BME280;30462;52.446;-1.930;2023-04-23T00:08:18;98670.71875;;;;
44734;BME280;30462;52.446;-1.930;2023-04-23T00:09:18;98671.03125;;;;
44734;BME280;30462;52.446;-1.930;2023-04-23T00:10:18;98665.02734;;;;
44734;BME280;30462;52.446;-1.930;2023-04-23T00:11:18;98662.35547;;;;
44734;BME280;30462;52.446;-1.930;2023-04-23T00:12:18;98660.53516;;;;
44734;BME280;30462;52.446;-1.930;2023-04-23T00:13:18;98659.67578;;;;
44734;BME280;30462;52.446;-1.930;2023-04-23T00:14:18;98659.13281;;;;
44734;BME280;30462;52.446;-1.930;2023-04-23T00:15:18;98657.58984;;;;
44734;BME280;30462;52.446;-1.930;2023-04-23T00:16:18;98656.54297;;;;
44734;BME280;30462;52.446;-1.930;2023-04-23T00:17:18;98653.17188;;;;
44734;BME280;30462;52.446;-1.930;2023-04-23T00:18:17;98653.60156;;;;
44734;BME280;30462;52.446;-1.930;2023-04-23T00:19:18;98654.33203;;;;
44734;BME280;30462;52.446;-1.930;2023-04-23T00:20:18;98654.83203;;;;
44734;BME280;30462;52.446;-1.930;2023-04-23T00:21:18;98652.58984;;;;
44734;BME280;30462;52.446;-1.930;2023-04-23T00:22:18;98653.46094;;;;
44734;BME280;30462;52.446;-1.930;2023-04-23T00:23:18;98651.31641;;;;
44734;BME280;30462;52.446;-1.930;2023-04-23T00:24:18;98649.78906;;;;
44734;BME280;30462;52.446;-1.930;2023-04-23T00:25:18;98646.19922;;;;
44734;BME280;30462;52.446;-1.930;2023-04-23T00:26:17;98644.83203;;;;
44734;BME280;30462;52.446;-1.930;2023-04-23T00:27:18;98644.02734;;;;
44734;BME280;30462;52.446;-1.930;2023-04-23T00:28:18;98647.28906;;;;
44734;BME280;30462;52.446;-1.930;2023-04-23T00:29:18;98644.82422;;;;
44734;BME280;30462;52.446;-1.930;2023-04-23T00:30:18;98647.16797;;;;
44734;BME280;30462;52.446;-1.930;2023-04-23T00:31:18;98642.5625;;;;
44734;BME280;30462;52.446;-1.930;2023-04-23T00:32:18;98640.5;;;;
44734;BME280;30462;52.446;-1.930;2023-04-23T00:33:17;98637.76563;;;;
44734;BME280;30462;52.446;-1.930;2023-04-23T00:34:18;98640.83594;;;;
44734;BME280;30462;52.446;-1.930;2023-04-23T00:35:18;98634.61719;;;;
44734;BME280;30462;52.446;-1.930;2023-04-23T00:36:18;98632.67578;;;;
44734;BME280;30462;52.446;-1.930;2023-04-23T00:37:18;98633.16797;;;;
44734;BME280;30462;52.446;-1.930;2023-04-23T00:38:18;98630.79688;;;;
44734;BME280;30462;52.446;-1.930;2023-04-23T00:39:18;98630.87109;;;;
44734;BME280;30462;52.446;-1.930;2023-04-23T00:40:18;98630.33203;;;;
44734;BME280;30462;52.446;-1.930;2023-04-23T00:41:18;98633.15234;;;;
44734;BME280;30462;52.446;-1.930;2023-04-23T00:42:18;98632.01563;;;;
44734;BME280;30462;52.446;-1.930;2023-04-23T00:43:18;98628.16797;;;;
44734;BME280;30462;52.446;-1.930;2023-04-23T00:44:18;98629.72656;;;;
44734;BME280;30462;52.446;-1.930;2023-04-23T00:45:18;98631.46094;;;;
44734;BME280;30462;52.446;-1.930;2023-04-23T00:46:18;98629.04297;;;;
44734;BME280;30462;52.446;-1.930;2023-04-23T00:47:17;98627.42578;;;;
44734;BME280;30462;52.446;-1.930;2023-04-23T00:48:18;98625.46094;;;;
44734;BME280;30462;52.446;-1.930;2023-04-23T00:49:18;98623.37109;;;;
44734;BME280;30462;52.446;-1.930;2023-04-23T00:50:18;98624.58984;;;;
44734;BME280;30462;52.446;-1.930;2023-04-23T00:51:18;98623.89063;;;;
44734;BME280;30462;52.446;-1.930;2023-04-23T00:52:18;98624.05078;;;;
44734;BME280;30462;52.446;-1.930;2023-04-23T00:53:18;98623.94531;;;;
44734;BME280;30462;52.446;-1.930;2023-04-23T00:54:18;98622.90625;;;;
44734;BME280;30462;52.446;-1.930;2023-04-23T00:55:18;98622.10938;;;;
44734;BME280;30462;52.446;-1.930;2023-04-23T00:56:18;98621.57422;;;;
44734;BME280;30462;52.446;-1.930;2023-04-23T00:57:18;98620.83203;;;;
44734;BME280;30462;52.446;-1.930;2023-04-23T00:58:18;98616.46094;;;;
44734;BME280;30462;52.446;-1.930;2023-04-23T00:59:18;98615.5;;;;
44734;BME280;30462;52.446;-1.930;2023-04-23T01:00:18;98616.96094;;;;
44734;BME280;30462;52.446;-1.930;2023-04-23T01:01:18;98616.97266;;;;
44734;BME280;30462;52.446;-1.930;2023-04-23T01:02:17;98614.375;;;;
44734;BME280;30462;52.446;-1.930;2023-04-23T01:03:18;98612.61719;;;;
44734;BME280;30462;52.446;-1.930;2023-04-23T01:04:18;98607.46875;;;;
44734;BME280;30462;52.446;-1.930;2023-04-23T01:05:18;98606.90625;;;;
44734;BME280;30462;52.446;-1.930;2023-04-23T01:06:18;98606.35156;;;;
44734;BME280;30462;52.446;-1.930;2023-04-23T01:07:18;98605.75391;;;;
44734;BME280;30462;52.446;-1.930;2023-04-23T01:08:18;98604.94922;;;;
44734;BME280;30462;52.446;-1.930;2023-04-23T01:09:18;98605.44141;;;;
44734;BME280;30462;52.446;-1.930;2023-04-23T01:10:18;98604.94141;;;;
44734;BME280;30462;52.446;-1.930;2023-04-23T01:11:18;98602.38281;;;;
44734;BME280;30462;52.446;-1.930;2023-04-23T01:12:17;98605.125;;;;
44734;BME280;30462;52.446;-1.930;2023-04-23T01:13:18;98604.03906;;;;
44734;BME280;30462;52.446;-1.930;2023-04-23T01:14:18;98603.42969;;;;
44734;BME280;30462;52.446;-1.930;2023-04-23T01:15:17;98601.57031;;;;
44734;BME280;30462;52.446;-1.930;2023-04-23T01:16:18;98599.71875;;;;
44734;BME280;30462;52.446;-1.930;2023-04-23T01:17:18;98603.52344;;;;
44734;BME280;30462;52.446;-1.930;2023-04-23T01:18:18;98598.63281;;;;
44734;BME280;30462;52.446;-1.930;2023-04-23T01:19:18;98598.46875;;;;
44734;BME280;30462;52.446;-1.930;2023-04-23T01:20:18;98598.77344;;;;
44734;BME280;30462;52.446;-1.930;2023-04-23T01:21:18;98595.91797;;;;
44734;BME280;30462;52.446;-1.930;2023-04-23T01:22:18;98595.53906;;;;
44734;BME280;30462;52.446;-1.930;2023-04-23T01:23:18;98595.61328;;;;
44734;BME280;30462;52.446;-1.930;2023-04-23T01:24:18;98595.9375;;;;
44734;BME280;30462;52.446;-1.930;2023-04-23T01:25:18;98591.57422;;;;
44734;BME280;30462;52.446;-1.930;2023-04-23T01:26:18;98594.44141;;;;
44734;BME280;30462;52.446;-1.930;2023-04-23T01:27:18;98594.10938;;;;
44734;BME280;30462;52.446;-1.930;2023-04-23T01:28:18;98591.25;;;;
44734;BME280;30462;52.446;-1.930;2023-04-23T01:29:18;98588.13672;;;;
44734;BME280;30462;52.446;-1.930;2023-04-23T01:30:18;98591.23828;;;;
44734;BME280;30462;52.446;-1.930;2023-04-23T01:31:18;98591.87109;;;;
44734;BME280;30462;52.446;-1.930;2023-04-23T01:32:17;98591.59375;;;;
44734;BME280;30462;52.446;-1.930;2023-04-23T01:33:18;98595.47656;;;;
44734;BME280;30462;52.446;-1.930;2023-04-23T01:34:17;98593.25391;;;;
44734;BME280;30462;52.446;-1.930;2023-04-23T01:35:18;98593.82422;;;;
44734;BME280;30462;52.446;-1.930;2023-04-23T01:36:18;98592.94531;;;;
44734;BME280;30462;52.446;-1.930;2023-04-23T01:37:18;98590.99219;;;;
44734;BME280;30462;52.446;-1.930;2023-04-23T01:38:18;98593.33594;;;;
44734;BME280;30462;52.446;-1.930;2023-04-23T01:39:18;98588.97266;;;;
44734;BME280;30462;52.446;-1.930;2023-04-23T01:40:18;98590.30469;;;;
44734;BME280;30462;52.446;-1.930;2023-04-23T01:41:18;98590;;;;
44734;BME280;30462;52.446;-1.930;2023-04-23T01:42:18;98589.29688;;;;
44734;BME280;30462;52.446;-1.930;2023-04-23T01:43:18;98586.46484;;;;
44734;BME280;30462;52.446;-1.930;2023-04-23T01:44:18;98585.51563;;;;
44734;BME280;30462;52.446;-1.930;2023-04-23T01:45:18;98586.40234;;;;
44734;BME280;30462;52.446;-1.930;2023-04-23T01:46:18;98584.92969;;;;
44734;BME280;30462;52.446;-1.930;2023-04-23T01:47:18;98584.82422;;;;
44734;BME280;30462;52.446;-1.930;2023-04-23T01:48:18;98580.83594;;;;
44734;BME280;30462;52.446;-1.930;2023-04-23T01:49:17;98582.78125;;;;
44734;BME280;30462;52.446;-1.930;2023-04-23T01:50:18;98581.36328;;;;
44734;BME280;30462;52.446;-1.930;2023-04-23T01:51:18;98581.99219;;;;
44734;BME280;30462;52.446;-1.930;2023-04-23T01:52:18;98583.46094;;;;
44734;BME280;30462;52.446;-1.930;2023-04-23T01:53:18;98579.81641;;;;
44734;BME280;30462;52.446;-1.930;2023-04-23T01:54:18;98582.23438;;;;
44734;BME280;30462;52.446;-1.930;2023-04-23T01:55:18;98578.94922;;;;
44734;BME280;30462;52.446;-1.930;2023-04-23T01:56:18;98577.20703;;;;
44734;BME280;30462;52.446;-1.930;2023-04-23T01:57:18;98574.10547;;;;
44734;BME280;30462;52.446;-1.930;2023-04-23T01:58:18;98575.90625;;;;
44734;BME280;30462;52.446;-1.930;2023-04-23T01:59:18;98574.48047;;;;
44734;BME280;30462;52.446;-1.930;2023-04-23T02:00:18;98571.88672;;;;
44734;BME280;30462;52.446;-1.930;2023-04-23T02:01:19;98570.34375;;;;
44734;BME280;30462;52.446;-1.930;2023-04-23T02:02:18;98569.93359;;;;
44734;BME280;30462;52.446;-1.930;2023-04-23T02:03:17;98571.05859;;;;
44734;BME280;30462;52.446;-1.930;2023-04-23T02:04:18;98575.27344;;;;
44734;BME280;30462;52.446;-1.930;2023-04-23T02:05:18;98572.875;;;;
44734;BME280;30462;52.446;-1.930;2023-04-23T02:06:17;98574;;;;
44734;BME280;30462;52.446;-1.930;2023-04-23T02:07:18;98574.76172;;;;
44734;BME280;30462;52.446;-1.930;2023-04-23T02:08:17;98575.13672;;;;
44734;BME280;30462;52.446;-1.930;2023-04-23T02:09:17;98573.46094;;;;
44734;BME280;30462;52.446;-1.930;2023-04-23T02:10:18;98575.60156;;;;
44734;BME280;30462;52.446;-1.930;2023-04-23T02:11:18;98571.25;;;;
44734;BME280;30462;52.446;-1.930;2023-04-23T02:12:18;98575.42969;;;;
44734;BME280;30462;52.446;-1.930;2023-04-23T02:13:18;98569.89063;;;;
44734;BME280;30462;52.446;-1.930;2023-04-23T02:14:18;98573.35156;;;;
44734;BME280;30462;52.446;-1.930;2023-04-23T02:15:18;98570.79688;;;;
44734;BME280;30462;52.446;-1.930;2023-04-23T02:16:18;98569.90625;;;;
44734;BME280;30462;52.446;-1.930;2023-04-23T02:17:18;98572.67578;;;;
44734;BME280;30462;52.446;-1.930;2023-04-23T02:18:18;98567.78906;;;;
44734;BME280;30462;52.446;-1.930;2023-04-23T02:19:18;98569.10156;;;;
44734;BME280;30462;52.446;-1.930;2023-04-23T02:20:18;98570.02734;;;;
44734;BME280;30462;52.446;-1.930;2023-04-23T02:21:18;98569.29297;;;;
44734;BME280;30462;52.446;-1.930;2023-04-23T02:22:18;98567.66797;;;;
44734;BME280;30462;52.446;-1.930;2023-04-23T02:23:18;98567.85547;;;;
44734;BME280;30462;52.446;-1.930;2023-04-23T02:24:18;98564;;;;
44734;BME280;30462;52.446;-1.930;2023-04-23T02:25:18;98564;;;;
44734;BME280;30462;52.446;-1.930;2023-04-23T02:26:18;98561.72656;;;;
44734;BME280;30462;52.446;-1.930;2023-04-23T02:27:18;98560.28516;;;;
44734;BME280;30462;52.446;-1.930;2023-04-23T02:28:18;98558.35156;;;;
44734;BME280;30462;52.446;-1.930;2023-04-23T02:29:18;98554.11328;;;;
44734;BME280;30462;52.446;-1.930;2023-04-23T02:30:18;98552.30078;;;;
44734;BME280;30462;52.446;-1.930;2023-04-23T02:31:18;98554.875;;;;
44734;BME280;30462;52.446;-1.930;2023-04-23T02:32:18;98554.875;;;;
44734;BME280;30462;52.446;-1.930;2023-04-23T02:33:18;98555.51953;;;;
44734;BME280;30462;52.446;-1.930;2023-04-23T02:34:17;98558.25781;;;;
44734;BME280;30462;52.446;-1.930;2023-04-23T02:35:18;98553.47656;;;;
44734;BME280;30462;52.446;-1.930;2023-04-23T02:36:18;98554.69922;;;;
44734;BME280;30462;52.446;-1.930;2023-04-23T02:37:18;98555.77734;;;;
44734;BME280;30462;52.446;-1.930;2023-04-23T02:38:18;98556.13281;;;;
44734;BME280;30462;52.446;-1.930;2023-04-23T02:39:18;98557.30859;;;;
44734;BME280;30462;52.446;-1.930;2023-04-23T02:40:18;98556.93359;;;;
44734;BME280;30462;52.446;-1.930;2023-04-23T02:41:18;98557.91797;;;;
44734;BME280;30462;52.446;-1.930;2023-04-23T02:42:18;98558.67578;;;;
44734;BME280;30462;52.446;-1.930;2023-04-23T02:43:18;98559.73047;;;;
44734;BME280;30462;52.446;-1.930;2023-04-23T02:44:18;98559.21875;;;;
44734;BME280;30462;52.446;-1.930;2023-04-23T02:45:18;98560.31641;;;;
44734;BME280;30462;52.446;-1.930;2023-04-23T02:46:18;98562.10547;;;;
44734;BME280;30462;52.446;-1.930;2023-04-23T02:47:18;98562.90234;;;;
44734;BME280;30462;52.446;-1.930;2023-04-23T02:48:18;98562.23828;;;;
44734;BME280;30462;52.446;-1.930;2023-04-23T02:49:18;98561.20703;;;;
44734;BME280;30462;52.446;-1.930;2023-04-23T02:50:18;98560.65625;;;;
44734;BME280;30462;52.446;-1.930;2023-04-23T02:51:18;98563.34766;;;;
44734;BME280;30462;52.446;-1.930;2023-04-23T02:52:18;98562.34375;;;;
44734;BME280;30462;52.446;-1.930;2023-04-23T02:53:18;98564.96484;;;;
44734;BME280;30462;52.446;-1.930;2023-04-23T02:54:18;98562.94922;;;;
44734;BME280;30462;52.446;-1.930;2023-04-23T02:55:18;98569.17578;;;;
44734;BME280;30462;52.446;-1.930;2023-04-23T02:56:17;98567.11719;;;;
44734;BME280;30462;52.446;-1.930;2023-04-23T02:57:18;98566.07813;;;;
44734;BME280;30462;52.446;-1.930;2023-04-23T02:58:18;98568.38281;;;;
44734;BME280;30462;52.446;-1.930;2023-04-23T02:59:18;98566.82813;;;;
44734;BME280;30462;52.446;-1.930;2023-04-23T03:00:18;98570.64844;;;;
44734;BME280;30462;52.446;-1.930;2023-04-23T03:01:18;98567.38672;;;;
44734;BME280;30462;52.446;-1.930;2023-04-23T03:02:18;98569.71875;;;;
44734;BME280;30462;52.446;-1.930;2023-04-23T03:03:17;98565.91016;;;;
44734;BME280;30462;52.446;-1.930;2023-04-23T03:04:17;98571.14453;;;;
44734;BME280;30462;52.446;-1.930;2023-04-23T03:05:18;98570.30078;;;;
44734;BME280;30462;52.446;-1.930;2023-04-23T03:06:18;98572.22656;;;;
44734;BME280;30462;52.446;-1.930;2023-04-23T03:07:18;98572.39063;;;;
44734;BME280;30462;52.446;-1.930;2023-04-23T03:08:18;98572.01953;;;;
44734;BME280;30462;52.446;-1.930;2023-04-23T03:09:17;98572.67188;;;;
44734;BME280;30462;52.446;-1.930;2023-04-23T03:10:17;98564.94141;;;;
44734;BME280;30462;52.446;-1.930;2023-04-23T03:11:18;98567.55078;;;;
44734;BME280;30462;52.446;-1.930;2023-04-23T03:12:18;98566.79297;;;;
44734;BME280;30462;52.446;-1.930;2023-04-23T03:13:18;98564.60156;;;;
44734;BME280;30462;52.446;-1.930;2023-04-23T03:14:18;98564.14844;;;;
44734;BME280;30462;52.446;-1.930;2023-04-23T03:15:18;98563.49219;;;;
44734;BME280;30462;52.446;-1.930;2023-04-23T03:16:18;98563.16406;;;;
44734;BME280;30462;52.446;-1.930;2023-04-23T03:17:18;98566.24219;;;;
44734;BME280;30462;52.446;-1.930;2023-04-23T03:18:17;98565.38672;;;;
44734;BME280;30462;52.446;-1.930;2023-04-23T03:19:18;98563.85156;;;;
44734;BME280;30462;52.446;-1.930;2023-04-23T03:20:18;98568.43359;;;;
44734;BME280;30462;52.446;-1.930;2023-04-23T03:21:18;98559.9375;;;;
44734;BME280;30462;52.446;-1.930;2023-04-23T03:22:18;98562.20313;;;;
44734;BME280;30462;52.446;-1.930;2023-04-23T03:23:18;98567.48047;;;;
44734;BME280;30462;52.446;-1.930;2023-04-23T03:24:18;98565.01953;;;;
44734;BME280;30462;52.446;-1.930;2023-04-23T03:25:18;98562.77734;;;;
44734;BME280;30462;52.446;-1.930;2023-04-23T03:26:17;98567.23438;;;;
44734;BME280;30462;52.446;-1.930;2023-04-23T03:27:18;98565.02344;;;;
44734;BME280;30462;52.446;-1.930;2023-04-23T03:28:18;98563.89453;;;;
44734;BME280;30462;52.446;-1.930;2023-04-23T03:29:18;98563.45313;;;;
44734;BME280;30462;52.446;-1.930;2023-04-23T03:30:18;98564.37109;;;;
44734;BME280;30462;52.446;-1.930;2023-04-23T03:31:18;98564.49609;;;;
44734;BME280;30462;52.446;-1.930;2023-04-23T03:32:17;98564.14453;;;;
44734;BME280;30462;52.446;-1.930;2023-04-23T03:33:18;98562.56641;;;;
44734;BME280;30462;52.446;-1.930;2023-04-23T03:34:18;98560.04297;;;;
44734;BME280;30462;52.446;-1.930;2023-04-23T03:35:18;98561.43359;;;;
44734;BME280;30462;52.446;-1.930;2023-04-23T03:36:18;98561.21094;;;;
44734;BME280;30462;52.446;-1.930;2023-04-23T03:37:17;98558.63672;;;;
44734;BME280;30462;52.446;-1.930;2023-04-23T03:38:18;98557.39844;;;;
44734;BME280;30462;52.446;-1.930;2023-04-23T03:39:17;98555.65625;;;;
44734;BME280;30462;52.446;-1.930;2023-04-23T03:40:19;98553.30469;;;;
44734;BME280;30462;52.446;-1.930;2023-04-23T03:41:18;98555.39844;;;;
44734;BME280;30462;52.446;-1.930;2023-04-23T03:42:18;98556.32422;;;;
44734;BME280;30462;52.446;-1.930;2023-04-23T03:43:18;98552.74219;;;;
44734;BME280;30462;52.446;-1.930;2023-04-23T03:44:17;98557.125;;;;
44734;BME280;30462;52.446;-1.930;2023-04-23T03:45:18;98559.29688;;;;
44734;BME280;30462;52.446;-1.930;2023-04-23T03:46:18;98562.38281;;;;
44734;BME280;30462;52.446;-1.930;2023-04-23T03:47:18;98565.375;;;;
44734;BME280;30462;52.446;-1.930;2023-04-23T03:48:18;98561.09375;;;;
44734;BME280;30462;52.446;-1.930;2023-04-23T03:49:18;98557.5;;;;
44734;BME280;30462;52.446;-1.930;2023-04-23T03:50:18;98557.22266;;;;
44734;BME280;30462;52.446;-1.930;2023-04-23T03:51:18;98560.05469;;;;
44734;BME280;30462;52.446;-1.930;2023-04-23T03:52:18;98558.51953;;;;
44734;BME280;30462;52.446;-1.930;2023-04-23T03:53:17;98559.64063;;;;
44734;BME280;30462;52.446;-1.930;2023-04-23T03:54:18;98557.89063;;;;
44734;BME280;30462;52.446;-1.930;2023-04-23T03:55:18;98559.79688;;;;
44734;BME280;30462;52.446;-1.930;2023-04-23T03:56:18;98557.63281;;;;
44734;BME280;30462;52.446;-1.930;2023-04-23T03:57:18;98558.16406;;;;
44734;BME280;30462;52.446;-1.930;2023-04-23T03:58:17;98561.4375;;;;
44734;BME280;30462;52.446;-1.930;2023-04-23T03:59:18;98562.23438;;;;
44734;BME280;30462;52.446;-1.930;2023-04-23T04:00:18;98558.72266;;;;
44734;BME280;30462;52.446;-1.930;2023-04-23T04:01:18;98560.5;;;;
44734;BME280;30462;52.446;-1.930;2023-04-23T04:02:18;98556.73438;;;;
44734;BME280;30462;52.446;-1.930;2023-04-23T04:03:19;98554.16016;;;;
44734;BME280;30462;52.446;-1.930;2023-04-23T04:04:17;98559.76563;;;;
44734;BME280;30462;52.446;-1.930;2023-04-23T04:05:18;98553.83594;;;;
44734;BME280;30462;52.446;-1.930;2023-04-23T04:06:18;98557.60156;;;;
44734;BME280;30462;52.446;-1.930;2023-04-23T04:07:18;98559.25;;;;
44734;BME280;30462;52.446;-1.930;2023-04-23T04:08:18;98557.23828;;;;
44734;BME280;30462;52.446;-1.930;2023-04-23T04:09:18;98561.22656;;;;
44734;BME280;30462;52.446;-1.930;2023-04-23T04:10:18;98560.62891;;;;
44734;BME280;30462;52.446;-1.930;2023-04-23T04:11:17;98562.52344;;;;
44734;BME280;30462;52.446;-1.930;2023-04-23T04:12:18;98560.05859;;;;
44734;BME280;30462;52.446;-1.930;2023-04-23T04:13:18;98559.54297;;;;
44734;BME280;30462;52.446;-1.930;2023-04-23T04:14:18;98554.35938;;;;
44734;BME280;30462;52.446;-1.930;2023-04-23T04:15:18;98557.23828;;;;
44734;BME280;30462;52.446;-1.930;2023-04-23T04:16:18;98558.41016;;;;
44734;BME280;30462;52.446;-1.930;2023-04-23T04:17:18;98555.53125;;;;
44734;BME280;30462;52.446;-1.930;2023-04-23T04:18:18;98557.00391;;;;
44734;BME280;30462;52.446;-1.930;2023-04-23T04:19:19;98559.40234;;;;
44734;BME280;30462;52.446;-1.930;2023-04-23T04:20:18;98553.75;;;;
44734;BME280;30462;52.446;-1.930;2023-04-23T04:21:18;98556.05859;;;;
44734;BME280;30462;52.446;-1.930;2023-04-23T04:22:18;98559.40234;;;;
44734;BME280;30462;52.446;-1.930;2023-04-23T04:23:18;98555.13281;;;;
44734;BME280;30462;52.446;-1.930;2023-04-23T04:24:18;98554.53906;;;;
44734;BME280;30462;52.446;-1.930;2023-04-23T04:25:18;98554.46484;;;;
44734;BME280;30462;52.446;-1.930;2023-04-23T04:26:18;98554.69922;;;;
44734;BME280;30462;52.446;-1.930;2023-04-23T04:27:18;98552.42188;;;;
44734;BME280;30462;52.446;-1.930;2023-04-23T04:28:18;98549.03906;;;;
44734;BME280;30462;52.446;-1.930;2023-04-23T04:29:17;98552.89844;;;;
44734;BME280;30462;52.446;-1.930;2023-04-23T04:30:18;98552.6875;;;;
44734;BME280;30462;52.446;-1.930;2023-04-23T04:31:18;98548.34766;;;;
44734;BME280;30462;52.446;-1.930;2023-04-23T04:32:18;98549.90625;;;;
44734;BME280;30462;52.446;-1.930;2023-04-23T04:33:18;98550.79688;;;;
44734;BME280;30462;52.446;-1.930;2023-04-23T04:34:18;98549.76563;;;;
44734;BME280;30462;52.446;-1.930;2023-04-23T04:35:18;98549.80078;;;;
44734;BME280;30462;52.446;-1.930;2023-04-23T04:36:17;98548.69922;;;;
44734;BME280;30462;52.446;-1.930;2023-04-23T04:37:18;98551.98828;;;;
44734;BME280;30462;52.446;-1.930;2023-04-23T04:38:18;98551.69531;;;;
44734;BME280;30462;52.446;-1.930;2023-04-23T04:39:18;98549.71875;;;;
44734;BME280;30462;52.446;-1.930;2023-04-23T04:40:18;98553.04297;;;;
44734;BME280;30462;52.446;-1.930;2023-04-23T04:41:17;98550.99609;;;;
44734;BME280;30462;52.446;-1.930;2023-04-23T04:42:17;98555.05469;;;;
44734;BME280;30462;52.446;-1.930;2023-04-23T04:43:18;98549.39453;;;;
44734;BME280;30462;52.446;-1.930;2023-04-23T04:44:18;98549.34375;;;;
44734;BME280;30462;52.446;-1.930;2023-04-23T04:45:18;98551.14844;;;;
44734;BME280;30462;52.446;-1.930;2023-04-23T04:46:18;98553.06641;;;;
44734;BME280;30462;52.446;-1.930;2023-04-23T04:47:18;98552.79688;;;;
44734;BME280;30462;52.446;-1.930;2023-04-23T04:48:18;98554.45703;;;;
44734;BME280;30462;52.446;-1.930;2023-04-23T04:49:18;98553.39063;;;;
44734;BME280;30462;52.446;-1.930;2023-04-23T04:50:18;98558.60547;;;;
44734;BME280;30462;52.446;-1.930;2023-04-23T04:51:18;98560.52344;;;;
44734;BME280;30462;52.446;-1.930;2023-04-23T04:52:18;98560.45703;;;;
44734;BME280;30462;52.446;-1.930;2023-04-23T04:53:18;98561.87891;;;;
44734;BME280;30462;52.446;-1.930;2023-04-23T04:54:18;98563.35547;;;;
44734;BME280;30462;52.446;-1.930;2023-04-23T04:55:18;98563.91797;;;;
44734;BME280;30462;52.446;-1.930;2023-04-23T04:56:18;98565.98828;;;;
44734;BME280;30462;52.446;-1.930;2023-04-23T04:57:18;98566.97266;;;;
44734;BME280;30462;52.446;-1.930;2023-04-23T04:58:18;98570.57031;;;;
44734;BME280;30462;52.446;-1.930;2023-04-23T04:59:18;98567.69141;;;;
44734;BME280;30462;52.446;-1.930;2023-04-23T05:00:19;98570.05469;;;;
44734;BME280;30462;52.446;-1.930;2023-04-23T05:01:18;98572.94531;;;;
44734;BME280;30462;52.446;-1.930;2023-04-23T05:02:18;98573.14453;;;;
44734;BME280;30462;52.446;-1.930;2023-04-23T05:03:18;98573.87109;;;;
44734;BME280;30462;52.446;-1.930;2023-04-23T05:04:18;98578.20313;;;;
44734;BME280;30462;52.446;-1.930;2023-04-23T05:05:18;98581.73828;;;;
44734;BME280;30462;52.446;-1.930;2023-04-23T05:06:18;98582.00391;;;;
44734;BME280;30462;52.446;-1.930;2023-04-23T05:07:18;98580.37891;;;;
44734;BME280;30462;52.446;-1.930;2023-04-23T05:08:17;98583.57422;;;;
44734;BME280;30462;52.446;-1.930;2023-04-23T05:09:18;98579.42578;;;;
44734;BME280;30462;52.446;-1.930;2023-04-23T05:10:18;98583.26953;;;;
44734;BME280;30462;52.446;-1.930;2023-04-23T05:11:18;98581.0625;;;;
44734;BME280;30462;52.446;-1.930;2023-04-23T05:12:18;98583.50391;;;;
44734;BME280;30462;52.446;-1.930;2023-04-23T05:13:18;98577.79688;;;;
44734;BME280;30462;52.446;-1.930;2023-04-23T05:14:18;98580.92188;;;;
44734;BME280;30462;52.446;-1.930;2023-04-23T05:15:18;98584.83984;;;;
44734;BME280;30462;52.446;-1.930;2023-04-23T05:16:18;98584.06641;;;;
44734;BME280;30462;52.446;-1.930;2023-04-23T05:17:18;98584.38281;;;;
44734;BME280;30462;52.446;-1.930;2023-04-23T05:18:18;98580.70703;;;;
44734;BME280;30462;52.446;-1.930;2023-04-23T05:19:18;98583.48047;;;;
44734;BME280;30462;52.446;-1.930;2023-04-23T05:20:19;98583.48047;;;;
44734;BME280;30462;52.446;-1.930;2023-04-23T05:21:18;98584.95313;;;;
44734;BME280;30462;52.446;-1.930;2023-04-23T05:22:18;98587.10938;;;;
44734;BME280;30462;52.446;-1.930;2023-04-23T05:23:18;98586.78125;;;;
44734;BME280;30462;52.446;-1.930;2023-04-23T05:24:18;98590.66016;;;;
44734;BME280;30462;52.446;-1.930;2023-04-23T05:25:18;98591.09766;;;;
44734;BME280;30462;52.446;-1.930;2023-04-23T05:26:18;98593.22656;;;;
44734;BME280;30462;52.446;-1.930;2023-04-23T05:27:18;98591.10547;;;;
44734;BME280;30462;52.446;-1.930;2023-04-23T05:28:18;98593.5625;;;;
44734;BME280;30462;52.446;-1.930;2023-04-23T05:29:18;98595.03516;;;;
44734;BME280;30462;52.446;-1.930;2023-04-23T05:30:18;98593.58594;;;;
44734;BME280;30462;52.446;-1.930;2023-04-23T05:31:18;98590.79688;;;;
44734;BME280;30462;52.446;-1.930;2023-04-23T05:32:18;98591.24219;;;;
44734;BME280;30462;52.446;-1.930;2023-04-23T05:33:18;98588.06641;;;;
44734;BME280;30462;52.446;-1.930;2023-04-23T05:34:18;98589.72266;;;;
44734;BME280;30462;52.446;-1.930;2023-04-23T05:35:18;98586.21484;;;;
44734;BME280;30462;52.446;-1.930;2023-04-23T05:36:18;98585.02734;;;;
44734;BME280;30462;52.446;-1.930;2023-04-23T05:37:17;98584.70313;;;;
44734;BME280;30462;52.446;-1.930;2023-04-23T05:38:18;98584.65625;;;;
44734;BME280;30462;52.446;-1.930;2023-04-23T05:39:18;98584.21484;;;;
44734;BME280;30462;52.446;-1.930;2023-04-23T05:40:18;98586.48438;;;;
44734;BME280;30462;52.446;-1.930;2023-04-23T05:41:18;98585.1875;;;;
44734;BME280;30462;52.446;-1.930;2023-04-23T05:42:18;98583.71484;;;;
44734;BME280;30462;52.446;-1.930;2023-04-23T05:43:18;98581.96875;;;;
44734;BME280;30462;52.446;-1.930;2023-04-23T05:44:18;98581.98828;;;;
44734;BME280;30462;52.446;-1.930;2023-04-23T05:45:18;98582.63281;;;;
44734;BME280;30462;52.446;-1.930;2023-04-23T05:46:18;98585.27344;;;;